Terminal Aerodrome Forecast
Issued by NWS New Orleans/Baton Rouge, LA

Home | Current Version | Previous Version | Text Only | Print | Product List | Glossary On
Versions: 1 2 3 4 5 6 7 8 9 10 11 12
502
FTUS44 KLIX 251734
TAFBTR
TAF
KBTR 251734Z 2518/2618 21006KT P6SM FEW040
     FM252300 20004KT P6SM SCT200
     FM260200 00000KT P6SM SCT250=

USA.gov is the U.S. government's official web portal to all federal, state and local government web resources and services.